sensor_id;sensor_type;location;lat;lon;timestamp;pressure;altitude;pressure_sealevel;temperature;humidity
74242;BME280;62599;49.146;10.426;2023-04-15T00:01:20;94760.22;;;2.45;100.00
74242;BME280;62599;49.146;10.426;2023-04-15T00:03:45;94750.00;;;2.38;100.00
74242;BME280;62599;49.146;10.426;2023-04-15T00:06:12;94748.72;;;2.35;100.00
74242;BME280;62599;49.146;10.426;2023-04-15T00:08:38;94747.78;;;2.31;100.00
74242;BME280;62599;49.146;10.426;2023-04-15T00:11:03;94739.63;;;2.28;100.00
74242;BME280;62599;49.146;10.426;2023-04-15T00:13:32;94748.09;;;2.30;100.00
74242;BME280;62599;49.146;10.426;2023-04-15T00:15:59;94743.06;;;2.28;100.00
74242;BME280;62599;49.146;10.426;2023-04-15T00:18:24;94750.56;;;2.26;100.00
74242;BME280;62599;49.146;10.426;2023-04-15T00:20:50;94745.84;;;2.23;100.00
74242;BME280;62599;49.146;10.426;2023-04-15T00:23:16;94743.00;;;2.20;100.00
74242;BME280;62599;49.146;10.426;2023-04-15T00:25:42;94744.75;;;2.24;100.00
74242;BME280;62599;49.146;10.426;2023-04-15T00:28:07;94748.69;;;2.27;100.00
74242;BME280;62599;49.146;10.426;2023-04-15T00:30:33;94749.19;;;2.29;100.00
74242;BME280;62599;49.146;10.426;2023-04-15T00:33:00;94742.00;;;2.29;100.00
74242;BME280;62599;49.146;10.426;2023-04-15T00:35:26;94742.47;;;2.31;100.00
74242;BME280;62599;49.146;10.426;2023-04-15T00:37:51;94740.75;;;2.35;100.00
74242;BME280;62599;49.146;10.426;2023-04-15T00:40:18;94742.03;;;2.38;100.00
74242;BME280;62599;49.146;10.426;2023-04-15T00:42:45;94737.03;;;2.36;100.00
74242;BME280;62599;49.146;10.426;2023-04-15T00:45:13;94737.50;;;2.38;100.00
74242;BME280;62599;49.146;10.426;2023-04-15T00:47:40;94730.31;;;2.39;100.00
74242;BME280;62599;49.146;10.426;2023-04-15T00:50:07;94739.38;;;2.38;100.00
74242;BME280;62599;49.146;10.426;2023-04-15T00:52:33;94732.50;;;2.37;100.00
74242;BME280;62599;49.146;10.426;2023-04-15T00:54:59;94729.53;;;2.38;100.00
74242;BME280;62599;49.146;10.426;2023-04-15T00:57:25;94733.56;;;2.36;100.00
74242;BME280;62599;49.146;10.426;2023-04-15T00:59:51;94722.00;;;2.32;100.00
74242;BME280;62599;49.146;10.426;2023-04-15T01:02:17;94725.13;;;2.34;100.00
74242;BME280;62599;49.146;10.426;2023-04-15T01:04:42;94732.28;;;2.47;100.00
74242;BME280;62599;49.146;10.426;2023-04-15T01:07:07;94731.38;;;2.60;100.00
74242;BME280;62599;49.146;10.426;2023-04-15T01:09:33;94726.59;;;2.71;100.00
74242;BME280;62599;49.146;10.426;2023-04-15T01:11:58;94728.84;;;2.78;100.00
74242;BME280;62599;49.146;10.426;2023-04-15T01:14:24;94731.34;;;2.83;100.00
74242;BME280;62599;49.146;10.426;2023-04-15T01:16:51;94736.06;;;2.86;100.00
74242;BME280;62599;49.146;10.426;2023-04-15T01:19:17;94735.44;;;2.89;100.00
74242;BME280;62599;49.146;10.426;2023-04-15T01:21:43;94724.53;;;2.91;100.00
74242;BME280;62599;49.146;10.426;2023-04-15T01:24:09;94722.50;;;2.96;100.00
74242;BME280;62599;49.146;10.426;2023-04-15T01:26:39;94721.72;;;2.96;100.00
74242;BME280;62599;49.146;10.426;2023-04-15T01:29:04;94722.66;;;2.91;100.00
74242;BME280;62599;49.146;10.426;2023-04-15T01:31:31;94711.53;;;2.89;100.00
74242;BME280;62599;49.146;10.426;2023-04-15T01:33:58;94718.06;;;2.83;100.00
74242;BME280;62599;49.146;10.426;2023-04-15T01:36:24;94714.16;;;2.80;100.00
74242;BME280;62599;49.146;10.426;2023-04-15T01:38:49;94710.22;;;2.78;100.00
74242;BME280;62599;49.146;10.426;2023-04-15T01:41:15;94705.22;;;2.76;100.00
74242;BME280;62599;49.146;10.426;2023-04-15T01:43:41;94708.66;;;2.77;100.00
74242;BME280;62599;49.146;10.426;2023-04-15T01:46:06;94711.31;;;2.77;100.00
74242;BME280;62599;49.146;10.426;2023-04-15T01:48:32;94708.66;;;2.77;100.00
74242;BME280;62599;49.146;10.426;2023-04-15T01:50:58;94707.06;;;2.76;100.00
74242;BME280;62599;49.146;10.426;2023-04-15T01:53:24;94706.28;;;2.75;100.00
74242;BME280;62599;49.146;10.426;2023-04-15T01:55:50;94699.59;;;2.78;100.00
74242;BME280;62599;49.146;10.426;2023-04-15T01:58:16;94702.91;;;2.83;100.00
74242;BME280;62599;49.146;10.426;2023-04-15T02:00:41;94698.09;;;2.94;100.00
74242;BME280;62599;49.146;10.426;2023-04-15T02:03:07;94694.50;;;2.99;100.00
74242;BME280;62599;49.146;10.426;2023-04-15T02:05:32;94696.84;;;3.00;100.00
74242;BME280;62599;49.146;10.426;2023-04-15T02:07:58;94699.06;;;2.98;100.00
74242;BME280;62599;49.146;10.426;2023-04-15T02:10:23;94695.28;;;2.99;100.00
74242;BME280;62599;49.146;10.426;2023-04-15T02:12:49;94698.56;;;2.96;100.00
74242;BME280;62599;49.146;10.426;2023-04-15T02:15:14;94689.19;;;2.99;100.00
74242;BME280;62599;49.146;10.426;2023-04-15T02:17:39;94690.75;;;3.00;100.00
74242;BME280;62599;49.146;10.426;2023-04-15T02:20:07;94693.72;;;2.98;100.00
74242;BME280;62599;49.146;10.426;2023-04-15T02:22:33;94695.13;;;2.96;100.00
74242;BME280;62599;49.146;10.426;2023-04-15T02:24:59;94688.53;;;2.93;100.00
74242;BME280;62599;49.146;10.426;2023-04-15T02:27:24;94685.72;;;2.89;100.00
74242;BME280;62599;49.146;10.426;2023-04-15T02:29:50;94688.19;;;2.86;100.00
74242;BME280;62599;49.146;10.426;2023-04-15T02:32:15;94688.97;;;2.86;100.00
74242;BME280;62599;49.146;10.426;2023-04-15T02:34:41;94696.78;;;2.83;100.00
74242;BME280;62599;49.146;10.426;2023-04-15T02:37:11;94696.00;;;2.82;100.00
74242;BME280;62599;49.146;10.426;2023-04-15T02:39:37;94692.56;;;2.82;100.00
74242;BME280;62599;49.146;10.426;2023-04-15T02:42:03;94697.88;;;2.82;100.00
74242;BME280;62599;49.146;10.426;2023-04-15T02:44:30;94695.22;;;2.82;100.00
74242;BME280;62599;49.146;10.426;2023-04-15T02:46:57;94695.81;;;2.79;100.00
74242;BME280;62599;49.146;10.426;2023-04-15T02:49:23;94696.44;;;2.76;100.00
74242;BME280;62599;49.146;10.426;2023-04-15T02:51:49;94705.34;;;2.71;100.00
74242;BME280;62599;49.146;10.426;2023-04-15T02:54:18;94708.91;;;2.67;100.00
74242;BME280;62599;49.146;10.426;2023-04-15T02:56:44;94711.72;;;2.61;100.00
74242;BME280;62599;49.146;10.426;2023-04-15T02:59:11;94714.38;;;2.61;100.00
74242;BME280;62599;49.146;10.426;2023-04-15T03:01:36;94707.59;;;2.55;100.00
74242;BME280;62599;49.146;10.426;2023-04-15T03:04:05;94716.69;;;2.54;100.00
74242;BME280;62599;49.146;10.426;2023-04-15T03:06:31;94713.84;;;2.51;100.00
74242;BME280;62599;49.146;10.426;2023-04-15T03:08:57;94717.38;;;2.46;100.00
74242;BME280;62599;49.146;10.426;2023-04-15T03:11:24;94716.75;;;2.40;100.00
74242;BME280;62599;49.146;10.426;2023-04-15T03:13:51;94714.81;;;2.32;100.00
74242;BME280;62599;49.146;10.426;2023-04-15T03:16:16;94719.16;;;2.28;100.00
74242;BME280;62599;49.146;10.426;2023-04-15T03:18:41;94722.72;;;2.24;100.00
74242;BME280;62599;49.146;10.426;2023-04-15T03:21:07;94721.56;;;2.16;100.00
74242;BME280;62599;49.146;10.426;2023-04-15T03:23:32;94715.91;;;2.09;100.00
74242;BME280;62599;49.146;10.426;2023-04-15T03:26:01;94723.38;;;2.07;100.00
74242;BME280;62599;49.146;10.426;2023-04-15T03:28:26;94724.78;;;2.04;100.00
74242;BME280;62599;49.146;10.426;2023-04-15T03:30:51;94722.72;;;2.01;100.00
74242;BME280;62599;49.146;10.426;2023-04-15T03:33:17;94718.31;;;1.97;100.00
74242;BME280;62599;49.146;10.426;2023-04-15T03:35:42;94718.13;;;1.93;100.00
74242;BME280;62599;49.146;10.426;2023-04-15T03:38:07;94708.88;;;1.90;100.00
74242;BME280;62599;49.146;10.426;2023-04-15T03:40:33;94713.41;;;1.90;100.00
74242;BME280;62599;49.146;10.426;2023-04-15T03:42:58;94709.97;;;1.89;100.00
74242;BME280;62599;49.146;10.426;2023-04-15T03:45:24;94712.91;;;1.88;100.00
74242;BME280;62599;49.146;10.426;2023-04-15T03:47:52;94715.09;;;1.86;100.00
74242;BME280;62599;49.146;10.426;2023-04-15T03:50:18;94714.78;;;1.87;100.00
74242;BME280;62599;49.146;10.426;2023-04-15T03:52:43;94716.53;;;1.92;100.00
74242;BME280;62599;49.146;10.426;2023-04-15T03:55:09;94708.47;;;1.97;100.00
74242;BME280;62599;49.146;10.426;2023-04-15T03:57:35;94709.13;;;2.03;100.00
74242;BME280;62599;49.146;10.426;2023-04-15T04:00:07;94716.69;;;2.09;100.00
74242;BME280;62599;49.146;10.426;2023-04-15T04:02:35;94708.44;;;2.11;100.00
74242;BME280;62599;49.146;10.426;2023-04-15T04:05:01;94712.81;;;2.15;100.00
74242;BME280;62599;49.146;10.426;2023-04-15T04:07:27;94718.97;;;2.25;100.00
74242;BME280;62599;49.146;10.426;2023-04-15T04:09:52;94708.69;;;2.32;100.00
74242;BME280;62599;49.146;10.426;2023-04-15T04:12:17;94712.03;;;2.37;100.00
74242;BME280;62599;49.146;10.426;2023-04-15T04:14:43;94710.47;;;2.36;100.00
74242;BME280;62599;49.146;10.426;2023-04-15T04:17:08;94715.97;;;2.40;100.00
74242;BME280;62599;49.146;10.426;2023-04-15T04:19:34;94712.41;;;2.45;100.00
74242;BME280;62599;49.146;10.426;2023-04-15T04:21:59;94713.34;;;2.49;100.00
74242;BME280;62599;49.146;10.426;2023-04-15T04:24:25;94707.44;;;2.52;100.00
74242;BME280;62599;49.146;10.426;2023-04-15T04:26:50;94710.13;;;2.60;100.00
74242;BME280;62599;49.146;10.426;2023-04-15T04:29:16;94706.69;;;2.60;100.00
74242;BME280;62599;49.146;10.426;2023-04-15T04:31:41;94713.75;;;2.64;100.00
74242;BME280;62599;49.146;10.426;2023-04-15T04:34:06;94714.69;;;2.69;100.00
74242;BME280;62599;49.146;10.426;2023-04-15T04:36:32;94712.84;;;2.69;100.00
74242;BME280;62599;49.146;10.426;2023-04-15T04:38:57;94711.75;;;2.70;100.00
74242;BME280;62599;49.146;10.426;2023-04-15T04:41:23;94725.03;;;2.70;100.00
74242;BME280;62599;49.146;10.426;2023-04-15T04:43:48;94720.50;;;2.71;100.00
74242;BME280;62599;49.146;10.426;2023-04-15T04:46:13;94717.84;;;2.71;100.00
74242;BME280;62599;49.146;10.426;2023-04-15T04:48:39;94717.34;;;2.69;100.00
74242;BME280;62599;49.146;10.426;2023-04-15T04:51:04;94720.19;;;2.72;100.00
74242;BME280;62599;49.146;10.426;2023-04-15T04:53:30;94720.50;;;2.71;100.00
74242;BME280;62599;49.146;10.426;2023-04-15T04:55:55;94717.34;;;2.69;100.00
74242;BME280;62599;49.146;10.426;2023-04-15T04:58:21;94719.22;;;2.68;100.00
74242;BME280;62599;49.146;10.426;2023-04-15T05:00:46;94724.88;;;2.67;100.00
74242;BME280;62599;49.146;10.426;2023-04-15T05:03:12;94717.66;;;2.67;100.00
74242;BME280;62599;49.146;10.426;2023-04-15T05:05:37;94721.09;;;2.68;100.00
74242;BME280;62599;49.146;10.426;2023-04-15T05:08:05;94716.09;;;2.66;100.00
74242;BME280;62599;49.146;10.426;2023-04-15T05:10:34;94721.72;;;2.64;100.00
74242;BME280;62599;49.146;10.426;2023-04-15T05:13:00;94718.59;;;2.62;100.00
74242;BME280;62599;49.146;10.426;2023-04-15T05:15:25;94717.63;;;2.58;100.00
74242;BME280;62599;49.146;10.426;2023-04-15T05:17:50;94723.91;;;2.62;100.00
74242;BME280;62599;49.146;10.426;2023-04-15T05:20:16;94714.38;;;2.61;100.00
74242;BME280;62599;49.146;10.426;2023-04-15T05:22:42;94722.38;;;2.70;100.00
74242;BME280;62599;49.146;10.426;2023-04-15T05:25:07;94718.53;;;2.85;100.00
74242;BME280;62599;49.146;10.426;2023-04-15T05:27:33;94719.22;;;2.91;100.00
74242;BME280;62599;49.146;10.426;2023-04-15T05:29:59;94720.50;;;3.02;100.00
74242;BME280;62599;49.146;10.426;2023-04-15T05:32:24;94727.28;;;3.17;100.00
74242;BME280;62599;49.146;10.426;2023-04-15T05:34:50;94723.72;;;3.30;100.00
74242;BME280;62599;49.146;10.426;2023-04-15T05:37:16;94717.50;;;3.43;100.00
74242;BME280;62599;49.146;10.426;2023-04-15T05:39:41;94720.81;;;3.57;100.00
74242;BME280;62599;49.146;10.426;2023-04-15T05:42:07;94707.03;;;3.73;100.00
74242;BME280;62599;49.146;10.426;2023-04-15T05:44:32;94714.28;;;3.90;100.00
74242;BME280;62599;49.146;10.426;2023-04-15T05:46:58;94716.78;;;4.03;100.00
74242;BME280;62599;49.146;10.426;2023-04-15T05:49:23;94723.81;;;4.17;100.00
74242;BME280;62599;49.146;10.426;2023-04-15T05:51:48;94719.13;;;4.22;100.00
74242;BME280;62599;49.146;10.426;2023-04-15T05:54:14;94725.84;;;4.37;100.00
74242;BME280;62599;49.146;10.426;2023-04-15T05:56:40;94724.75;;;4.47;100.00
74242;BME280;62599;49.146;10.426;2023-04-15T05:59:05;94727.22;;;4.61;100.00
74242;BME280;62599;49.146;10.426;2023-04-15T06:01:32;94727.38;;;4.73;100.00
74242;BME280;62599;49.146;10.426;2023-04-15T06:03:57;94722.16;;;4.85;100.00
74242;BME280;62599;49.146;10.426;2023-04-15T06:06:23;94717.94;;;4.75;100.00
74242;BME280;62599;49.146;10.426;2023-04-15T06:08:48;94721.19;;;4.98;100.00
74242;BME280;62599;49.146;10.426;2023-04-15T06:11:14;94721.75;;;5.13;100.00
74242;BME280;62599;49.146;10.426;2023-04-15T06:13:39;94716.69;;;5.20;100.00
74242;BME280;62599;49.146;10.426;2023-04-15T06:16:08;94723.38;;;5.35;100.00
74242;BME280;62599;49.146;10.426;2023-04-15T06:18:33;94731.53;;;5.38;100.00
74242;BME280;62599;49.146;10.426;2023-04-15T06:20:58;94722.81;;;5.50;100.00
74242;BME280;62599;49.146;10.426;2023-04-15T06:23:24;94735.41;;;5.49;100.00
74242;BME280;62599;49.146;10.426;2023-04-15T06:25:49;94736.38;;;5.74;100.00
74242;BME280;62599;49.146;10.426;2023-04-15T06:28:15;94735.59;;;5.74;100.00
74242;BME280;62599;49.146;10.426;2023-04-15T06:30:41;94734.75;;;5.82;100.00
74242;BME280;62599;49.146;10.426;2023-04-15T06:33:06;94737.28;;;5.78;100.00
74242;BME280;62599;49.146;10.426;2023-04-15T06:35:31;94733.72;;;5.66;100.00
74242;BME280;62599;49.146;10.426;2023-04-15T06:37:57;94736.56;;;5.90;100.00
74242;BME280;62599;49.146;10.426;2023-04-15T06:40:22;94744.41;;;5.95;100.00
74242;BME280;62599;49.146;10.426;2023-04-15T06:42:47;94743.47;;;5.91;100.00
74242;BME280;62599;49.146;10.426;2023-04-15T06:45:13;94737.91;;;5.75;100.00
74242;BME280;62599;49.146;10.426;2023-04-15T06:47:38;94741.25;;;5.72;100.00
74242;BME280;62599;49.146;10.426;2023-04-15T06:50:05;94748.81;;;5.91;100.00
74242;BME280;62599;49.146;10.426;2023-04-15T06:52:30;94746.81;;;5.88;100.00
74242;BME280;62599;49.146;10.426;2023-04-15T06:54:56;94748.59;;;6.05;100.00
74242;BME280;62599;49.146;10.426;2023-04-15T06:57:23;94753.16;;;6.05;100.00
74242;BME280;62599;49.146;10.426;2023-04-15T06:59:48;94741.69;;;6.25;100.00
74242;BME280;62599;49.146;10.426;2023-04-15T07:02:14;94733.59;;;6.34;100.00
74242;BME280;62599;49.146;10.426;2023-04-15T07:08:01;94744.53;;;6.62;100.00
74242;BME280;62599;49.146;10.426;2023-04-15T07:10:26;94740.28;;;6.61;100.00
74242;BME280;62599;49.146;10.426;2023-04-15T07:12:52;94742.25;;;6.85;100.00
74242;BME280;62599;49.146;10.426;2023-04-15T07:15:17;94745.88;;;7.01;100.00
74242;BME280;62599;49.146;10.426;2023-04-15T07:17:43;94742.66;;;7.20;100.00
74242;BME280;62599;49.146;10.426;2023-04-15T07:20:08;94738.13;;;7.45;100.00
74242;BME280;62599;49.146;10.426;2023-04-15T07:22:34;94745.56;;;7.76;100.00
74242;BME280;62599;49.146;10.426;2023-04-15T07:24:59;94749.34;;;7.87;100.00
74242;BME280;62599;49.146;10.426;2023-04-15T07:27:25;94742.97;;;8.04;100.00
74242;BME280;62599;49.146;10.426;2023-04-15T07:29:51;94740.84;;;8.10;100.00
74242;BME280;62599;49.146;10.426;2023-04-15T07:32:17;94740.44;;;7.95;96.86
74242;BME280;62599;49.146;10.426;2023-04-15T07:34:43;94747.22;;;8.05;100.00
74242;BME280;62599;49.146;10.426;2023-04-15T07:37:08;94743.31;;;7.90;89.47
74242;BME280;62599;49.146;10.426;2023-04-15T07:39:34;94739.53;;;7.91;88.92
74242;BME280;62599;49.146;10.426;2023-04-15T07:41:59;94746.00;;;7.90;88.56
74242;BME280;62599;49.146;10.426;2023-04-15T07:44:25;94742.00;;;7.96;83.57
74242;BME280;62599;49.146;10.426;2023-04-15T07:46:51;94742.16;;;8.16;84.15
74242;BME280;62599;49.146;10.426;2023-04-15T07:49:16;94734.03;;;8.53;82.99
74242;BME280;62599;49.146;10.426;2023-04-15T07:51:43;94742.28;;;8.88;85.95
74242;BME280;62599;49.146;10.426;2023-04-15T07:54:09;94748.09;;;8.62;78.42
74242;BME280;62599;49.146;10.426;2023-04-15T07:56:34;94744.38;;;8.26;80.33
74242;BME280;62599;49.146;10.426;2023-04-15T07:59:00;94752.09;;;8.40;82.94
74242;BME280;62599;49.146;10.426;2023-04-15T08:01:29;94753.59;;;8.53;79.19
74242;BME280;62599;49.146;10.426;2023-04-15T08:03:54;94750.19;;;8.68;78.92
74242;BME280;62599;49.146;10.426;2023-04-15T08:06:21;94751.75;;;8.98;76.83
74242;BME280;62599;49.146;10.426;2023-04-15T08:08:46;94743.41;;;9.03;75.35
74242;BME280;62599;49.146;10.426;2023-04-15T08:11:12;94753.94;;;9.39;76.81
74242;BME280;62599;49.146;10.426;2023-04-15T08:13:37;94747.63;;;9.48;73.06
74242;BME280;62599;49.146;10.426;2023-04-15T08:16:20;94747.78;;;9.23;73.04
74242;BME280;62599;49.146;10.426;2023-04-15T08:18:47;94746.28;;;9.26;73.00
74242;BME280;62599;49.146;10.426;2023-04-15T08:21:16;94753.00;;;9.48;72.93
74242;BME280;62599;49.146;10.426;2023-04-15T08:23:42;94756.34;;;9.29;72.82
74242;BME280;62599;49.146;10.426;2023-04-15T08:26:08;94751.09;;;9.48;71.55
74242;BME280;62599;49.146;10.426;2023-04-15T08:28:33;94758.53;;;9.39;70.79
74242;BME280;62599;49.146;10.426;2023-04-15T08:30:59;94753.00;;;9.48;69.56
74242;BME280;62599;49.146;10.426;2023-04-15T08:33:24;94754.38;;;9.42;71.44
74242;BME280;62599;49.146;10.426;2023-04-15T08:35:50;94749.81;;;8.82;71.92
74242;BME280;62599;49.146;10.426;2023-04-15T08:38:15;94748.06;;;8.46;73.13
74242;BME280;62599;49.146;10.426;2023-04-15T08:40:43;94745.84;;;8.64;73.64
74242;BME280;62599;49.146;10.426;2023-04-15T08:43:12;94746.13;;;8.75;74.08
74242;BME280;62599;49.146;10.426;2023-04-15T08:45:40;94741.41;;;9.00;73.85
74242;BME280;62599;49.146;10.426;2023-04-15T08:48:06;94752.81;;;9.25;71.91
74242;BME280;62599;49.146;10.426;2023-04-15T08:50:34;94746.97;;;9.07;72.42
74242;BME280;62599;49.146;10.426;2023-04-15T08:52:59;94752.72;;;9.53;71.72
74242;BME280;62599;49.146;10.426;2023-04-15T08:55:29;94749.84;;;9.61;69.96
74242;BME280;62599;49.146;10.426;2023-04-15T08:57:58;94749.94;;;9.18;70.21
74242;BME280;62599;49.146;10.426;2023-04-15T09:00:24;94754.56;;;9.49;69.82
74242;BME280;62599;49.146;10.426;2023-04-15T09:02:50;94754.03;;;9.27;67.46
74242;BME280;62599;49.146;10.426;2023-04-15T09:05:16;94754.44;;;9.29;68.19
74242;BME280;62599;49.146;10.426;2023-04-15T09:07:41;94754.13;;;9.31;68.25
74242;BME280;62599;49.146;10.426;2023-04-15T09:10:08;94746.41;;;8.85;69.50
74242;BME280;62599;49.146;10.426;2023-04-15T09:12:34;94744.16;;;9.15;70.27
74242;BME280;62599;49.146;10.426;2023-04-15T09:15:01;94744.59;;;8.89;69.00
74242;BME280;62599;49.146;10.426;2023-04-15T09:17:26;94751.66;;;9.10;70.53
74242;BME280;62599;49.146;10.426;2023-04-15T09:20:07;94746.38;;;9.29;68.80
74242;BME280;62599;49.146;10.426;2023-04-15T09:22:33;94754.19;;;9.82;69.04
74242;BME280;62599;49.146;10.426;2023-04-15T09:24:59;94761.13;;;9.83;67.03
74242;BME280;62599;49.146;10.426;2023-04-15T09:27:25;94761.72;;;9.92;66.50
74242;BME280;62599;49.146;10.426;2023-04-15T09:29:52;94765.75;;;10.02;66.99
74242;BME280;62599;49.146;10.426;2023-04-15T09:32:18;94773.13;;;10.21;65.70
74242;BME280;62599;49.146;10.426;2023-04-15T09:34:45;94766.81;;;10.13;65.32
74242;BME280;62599;49.146;10.426;2023-04-15T09:37:12;94776.06;;;9.80;64.75
74242;BME280;62599;49.146;10.426;2023-04-15T09:39:48;94767.78;;;9.89;63.98
74242;BME280;62599;49.146;10.426;2023-04-15T09:42:14;94759.25;;;9.52;64.85
74242;BME280;62599;49.146;10.426;2023-04-15T09:44:41;94766.50;;;9.51;65.89
74242;BME280;62599;49.146;10.426;2023-04-15T09:47:06;94763.81;;;9.99;66.88
74242;BME280;62599;49.146;10.426;2023-04-15T09:49:31;94762.53;;;10.12;65.62
74242;BME280;62599;49.146;10.426;2023-04-15T09:51:59;94765.34;;;10.00;64.26
74242;BME280;62599;49.146;10.426;2023-04-15T09:54:32;94763.19;;;9.89;65.31
74242;BME280;62599;49.146;10.426;2023-04-15T09:57:04;94755.44;;;10.04;63.68
74242;BME280;62599;49.146;10.426;2023-04-15T09:59:29;94764.03;;;10.25;61.94
74242;BME280;62599;49.146;10.426;2023-04-15T10:01:55;94758.41;;;9.99;62.66
74242;BME280;62599;49.146;10.426;2023-04-15T10:04:21;94755.56;;;9.76;63.61
74242;BME280;62599;49.146;10.426;2023-04-15T10:06:47;94758.09;;;9.69;62.75
74242;BME280;62599;49.146;10.426;2023-04-15T10:09:13;94761.75;;;9.60;62.05
74242;BME280;62599;49.146;10.426;2023-04-15T10:11:38;94757.50;;;9.44;62.28
74242;BME280;62599;49.146;10.426;2023-04-15T10:14:05;94770.56;;;9.29;64.29
74242;BME280;62599;49.146;10.426;2023-04-15T10:16:32;94776.56;;;9.23;63.42
74242;BME280;62599;49.146;10.426;2023-04-15T10:19:02;94775.16;;;9.29;63.40
74242;BME280;62599;49.146;10.426;2023-04-15T10:21:29;94777.03;;;9.40;63.47
74242;BME280;62599;49.146;10.426;2023-04-15T10:23:55;94783.00;;;9.34;61.53
74242;BME280;62599;49.146;10.426;2023-04-15T10:26:21;94776.41;;;9.31;60.00
74242;BME280;62599;49.146;10.426;2023-04-15T10:28:46;94779.34;;;9.58;60.28
74242;BME280;62599;49.146;10.426;2023-04-15T10:31:16;94779.53;;;9.65;60.09
74242;BME280;62599;49.146;10.426;2023-04-15T10:33:43;94791.69;;;9.59;60.39
74242;BME280;62599;49.146;10.426;2023-04-15T10:36:09;94781.69;;;9.59;59.45
74242;BME280;62599;49.146;10.426;2023-04-15T10:38:40;94792.69;;;9.38;58.44
74242;BME280;62599;49.146;10.426;2023-04-15T10:44:03;94785.81;;;8.81;58.78
74242;BME280;62599;49.146;10.426;2023-04-15T10:46:37;94790.13;;;8.70;61.31
74242;BME280;62599;49.146;10.426;2023-04-15T10:49:26;94793.78;;;8.50;62.09
74242;BME280;62599;49.146;10.426;2023-04-15T10:51:57;94804.19;;;8.27;63.60
74242;BME280;62599;49.146;10.426;2023-04-15T10:57:07;94814.00;;;8.35;65.05
74242;BME280;62599;49.146;10.426;2023-04-15T11:02:06;94817.03;;;8.33;65.36
74242;BME280;62599;49.146;10.426;2023-04-15T11:04:54;94822.84;;;8.35;65.89
74242;BME280;62599;49.146;10.426;2023-04-15T11:12:49;94818.94;;;8.08;67.47
74242;BME280;62599;49.146;10.426;2023-04-15T11:15:40;94827.47;;;8.10;68.72
74242;BME280;62599;49.146;10.426;2023-04-15T11:18:14;94831.72;;;7.99;74.21
74242;BME280;62599;49.146;10.426;2023-04-15T11:20:42;94819.19;;;7.66;76.95
74242;BME280;62599;49.146;10.426;2023-04-15T11:23:11;94821.06;;;7.54;78.20
74242;BME280;62599;49.146;10.426;2023-04-15T11:25:40;94828.44;;;7.44;79.70
74242;BME280;62599;49.146;10.426;2023-04-15T11:28:06;94842.03;;;7.39;81.31
74242;BME280;62599;49.146;10.426;2023-04-15T11:30:33;94840.22;;;7.31;82.97
74242;BME280;62599;49.146;10.426;2023-04-15T11:33:01;94840.09;;;7.28;83.22
74242;BME280;62599;49.146;10.426;2023-04-15T11:35:28;94847.97;;;7.12;86.52
74242;BME280;62599;49.146;10.426;2023-04-15T11:37:54;94843.16;;;7.05;89.03
74242;BME280;62599;49.146;10.426;2023-04-15T11:40:29;94848.13;;;6.94;89.40
74242;BME280;62599;49.146;10.426;2023-04-15T11:43:08;94855.66;;;6.80;90.40
74242;BME280;62599;49.146;10.426;2023-04-15T11:45:35;94853.38;;;6.70;90.28
74242;BME280;62599;49.146;10.426;2023-04-15T11:48:08;94855.78;;;6.63;92.18
74242;BME280;62599;49.146;10.426;2023-04-15T11:50:35;94851.56;;;6.62;95.11
74242;BME280;62599;49.146;10.426;2023-04-15T11:53:04;94861.13;;;6.63;95.73
74242;BME280;62599;49.146;10.426;2023-04-15T11:55:30;94861.25;;;6.66;95.89
74242;BME280;62599;49.146;10.426;2023-04-15T12:00:42;94869.28;;;6.87;100.00
74242;BME280;62599;49.146;10.426;2023-04-15T12:06:08;94865.31;;;6.51;97.45
74242;BME280;62599;49.146;10.426;2023-04-15T12:08:55;94875.75;;;6.44;96.73
74242;BME280;62599;49.146;10.426;2023-04-15T12:11:30;94875.25;;;6.42;97.78
74242;BME280;62599;49.146;10.426;2023-04-15T12:13:58;94880.69;;;6.34;96.70
74242;BME280;62599;49.146;10.426;2023-04-15T12:16:24;94875.94;;;6.39;96.84
74242;BME280;62599;49.146;10.426;2023-04-15T12:18:51;94884.13;;;6.34;95.56
74242;BME280;62599;49.146;10.426;2023-04-15T12:21:21;94878.00;;;6.34;96.70
74242;BME280;62599;49.146;10.426;2023-04-15T12:23:50;94879.53;;;6.43;97.65
74242;BME280;62599;49.146;10.426;2023-04-15T12:26:17;94881.94;;;6.36;92.23
74242;BME280;62599;49.146;10.426;2023-04-15T12:28:46;94888.72;;;6.34;91.07
74242;BME280;62599;49.146;10.426;2023-04-15T12:31:13;94890.41;;;6.38;93.41
74242;BME280;62599;49.146;10.426;2023-04-15T12:33:38;94891.38;;;6.34;91.33
74242;BME280;62599;49.146;10.426;2023-04-15T12:36:04;94897.69;;;6.29;93.21
74242;BME280;62599;49.146;10.426;2023-04-15T12:38:30;94889.69;;;6.29;90.81
74242;BME280;62599;49.146;10.426;2023-04-15T12:40:57;94899.41;;;6.34;89.58
74242;BME280;62599;49.146;10.426;2023-04-15T12:43:24;94902.00;;;6.42;89.00
74242;BME280;62599;49.146;10.426;2023-04-15T12:45:49;94903.22;;;6.54;89.78
74242;BME280;62599;49.146;10.426;2023-04-15T12:48:17;94906.69;;;6.75;87.45
74242;BME280;62599;49.146;10.426;2023-04-15T12:50:42;94909.75;;;7.07;86.44
74242;BME280;62599;49.146;10.426;2023-04-15T12:53:08;94913.03;;;7.12;84.05
74242;BME280;62599;49.146;10.426;2023-04-15T12:55:33;94929.66;;;7.18;85.41
74242;BME280;62599;49.146;10.426;2023-04-15T12:57:58;94926.41;;;7.12;83.61
74242;BME280;62599;49.146;10.426;2023-04-15T13:00:24;94922.44;;;6.97;84.48
74242;BME280;62599;49.146;10.426;2023-04-15T13:02:49;94929.19;;;6.74;84.23
74242;BME280;62599;49.146;10.426;2023-04-15T13:05:14;94931.16;;;6.65;85.39
74242;BME280;62599;49.146;10.426;2023-04-15T13:07:41;94942.09;;;6.51;87.89
74242;BME280;62599;49.146;10.426;2023-04-15T13:10:07;94937.13;;;6.41;89.15
74242;BME280;62599;49.146;10.426;2023-04-15T13:12:32;94931.78;;;6.41;91.30
74242;BME280;62599;49.146;10.426;2023-04-15T13:15:04;94937.91;;;6.41;92.30